sensor_id;sensor_type;location;lat;lon;timestamp;temperature;humidity
40638;DHT22;26336;44.696;10.622;2023-12-20T00:00:17;5.30;99.90
40638;DHT22;26336;44.696;10.622;2023-12-20T00:03:21;5.30;99.90
40638;DHT22;26336;44.696;10.622;2023-12-20T00:06:25;5.20;99.90
40638;DHT22;26336;44.696;10.622;2023-12-20T00:09:29;5.20;99.90
40638;DHT22;26336;44.696;10.622;2023-12-20T00:12:34;5.20;99.90
40638;DHT22;26336;44.696;10.622;2023-12-20T00:15:38;5.20;99.90
40638;DHT22;26336;44.696;10.622;2023-12-20T00:18:42;5.10;99.90
40638;DHT22;26336;44.696;10.622;2023-12-20T00:21:46;5.10;99.90
40638;DHT22;26336;44.696;10.622;2023-12-20T00:24:50;5.10;99.90
40638;DHT22;26336;44.696;10.622;2023-12-20T00:27:54;5.00;99.90
40638;DHT22;26336;44.696;10.622;2023-12-20T00:31:00;5.00;99.90
40638;DHT22;26336;44.696;10.622;2023-12-20T00:34:04;5.00;99.90
40638;DHT22;26336;44.696;10.622;2023-12-20T00:37:08;5.00;99.90
40638;DHT22;26336;44.696;10.622;2023-12-20T00:40:12;4.90;99.90
40638;DHT22;26336;44.696;10.622;2023-12-20T00:43:16;4.90;99.90
40638;DHT22;26336;44.696;10.622;2023-12-20T00:46:20;4.90;99.90
40638;DHT22;26336;44.696;10.622;2023-12-20T00:49:23;4.80;99.90
40638;DHT22;26336;44.696;10.622;2023-12-20T00:52:27;4.60;99.90
40638;DHT22;26336;44.696;10.622;2023-12-20T00:55:31;4.60;99.90
40638;DHT22;26336;44.696;10.622;2023-12-20T00:58:35;4.70;99.90
40638;DHT22;26336;44.696;10.622;2023-12-20T01:01:39;4.70;99.90
40638;DHT22;26336;44.696;10.622;2023-12-20T01:04:43;4.70;99.90
40638;DHT22;26336;44.696;10.622;2023-12-20T01:07:47;4.70;99.90
40638;DHT22;26336;44.696;10.622;2023-12-20T01:10:51;4.70;99.90
40638;DHT22;26336;44.696;10.622;2023-12-20T01:13:55;4.70;99.90
40638;DHT22;26336;44.696;10.622;2023-12-20T01:16:59;4.70;99.90
40638;DHT22;26336;44.696;10.622;2023-12-20T01:20:04;4.70;99.90
40638;DHT22;26336;44.696;10.622;2023-12-20T01:23:08;4.70;99.90
40638;DHT22;26336;44.696;10.622;2023-12-20T01:26:12;4.70;99.90
40638;DHT22;26336;44.696;10.622;2023-12-20T01:29:17;4.70;99.90
40638;DHT22;26336;44.696;10.622;2023-12-20T01:32:21;4.70;99.90
40638;DHT22;26336;44.696;10.622;2023-12-20T01:35:25;4.70;99.90
40638;DHT22;26336;44.696;10.622;2023-12-20T01:38:29;4.70;99.90
40638;DHT22;26336;44.696;10.622;2023-12-20T01:41:33;4.70;99.90
40638;DHT22;26336;44.696;10.622;2023-12-20T01:44:37;4.70;99.90
40638;DHT22;26336;44.696;10.622;2023-12-20T01:47:41;4.70;99.90
40638;DHT22;26336;44.696;10.622;2023-12-20T01:50:45;4.70;99.90
40638;DHT22;26336;44.696;10.622;2023-12-20T01:53:49;4.70;99.90
40638;DHT22;26336;44.696;10.622;2023-12-20T01:56:53;4.60;99.90
40638;DHT22;26336;44.696;10.622;2023-12-20T01:59:57;4.60;99.90
40638;DHT22;26336;44.696;10.622;2023-12-20T02:03:02;4.60;99.90
40638;DHT22;26336;44.696;10.622;2023-12-20T02:06:07;4.60;99.90
40638;DHT22;26336;44.696;10.622;2023-12-20T02:09:12;4.50;99.90
40638;DHT22;26336;44.696;10.622;2023-12-20T02:12:15;4.50;99.90
40638;DHT22;26336;44.696;10.622;2023-12-20T02:15:19;4.50;99.90
40638;DHT22;26336;44.696;10.622;2023-12-20T02:18:23;4.60;99.90
40638;DHT22;26336;44.696;10.622;2023-12-20T02:21:33;4.60;99.90
40638;DHT22;26336;44.696;10.622;2023-12-20T02:24:40;4.60;99.90
40638;DHT22;26336;44.696;10.622;2023-12-20T02:27:44;4.60;99.90
40638;DHT22;26336;44.696;10.622;2023-12-20T02:30:48;4.60;99.90
40638;DHT22;26336;44.696;10.622;2023-12-20T02:33:52;4.60;99.90
40638;DHT22;26336;44.696;10.622;2023-12-20T02:36:56;4.60;99.90
40638;DHT22;26336;44.696;10.622;2023-12-20T02:40:00;4.60;99.90
40638;DHT22;26336;44.696;10.622;2023-12-20T02:43:04;4.60;99.90
40638;DHT22;26336;44.696;10.622;2023-12-20T02:46:08;4.50;99.90
40638;DHT22;26336;44.696;10.622;2023-12-20T02:49:12;4.50;99.90
40638;DHT22;26336;44.696;10.622;2023-12-20T02:52:16;4.50;99.90
40638;DHT22;26336;44.696;10.622;2023-12-20T02:55:20;4.40;99.90
40638;DHT22;26336;44.696;10.622;2023-12-20T02:58:24;4.40;99.90
40638;DHT22;26336;44.696;10.622;2023-12-20T03:01:29;4.30;99.90
40638;DHT22;26336;44.696;10.622;2023-12-20T03:04:34;4.20;99.90
40638;DHT22;26336;44.696;10.622;2023-12-20T03:07:38;4.20;99.90
40638;DHT22;26336;44.696;10.622;2023-12-20T03:10:42;4.20;99.90
40638;DHT22;26336;44.696;10.622;2023-12-20T03:13:46;4.20;99.90
40638;DHT22;26336;44.696;10.622;2023-12-20T03:16:50;4.20;99.90
40638;DHT22;26336;44.696;10.622;2023-12-20T03:19:54;4.20;99.90
40638;DHT22;26336;44.696;10.622;2023-12-20T03:22:58;4.20;99.90
40638;DHT22;26336;44.696;10.622;2023-12-20T03:26:03;4.20;99.90
40638;DHT22;26336;44.696;10.622;2023-12-20T03:29:10;4.20;99.90
40638;DHT22;26336;44.696;10.622;2023-12-20T03:32:14;4.10;99.90
40638;DHT22;26336;44.696;10.622;2023-12-20T03:35:21;4.20;99.90
40638;DHT22;26336;44.696;10.622;2023-12-20T03:38:24;4.10;99.90
40638;DHT22;26336;44.696;10.622;2023-12-20T03:41:29;4.10;99.90
40638;DHT22;26336;44.696;10.622;2023-12-20T03:44:33;4.00;99.90
40638;DHT22;26336;44.696;10.622;2023-12-20T03:47:37;4.00;99.90
40638;DHT22;26336;44.696;10.622;2023-12-20T03:50:41;4.00;99.90
40638;DHT22;26336;44.696;10.622;2023-12-20T03:53:45;4.00;99.90
40638;DHT22;26336;44.696;10.622;2023-12-20T03:56:49;4.00;99.90
40638;DHT22;26336;44.696;10.622;2023-12-20T03:59:53;4.00;99.90
40638;DHT22;26336;44.696;10.622;2023-12-20T04:02:57;4.00;99.90
40638;DHT22;26336;44.696;10.622;2023-12-20T04:06:01;4.00;99.90
40638;DHT22;26336;44.696;10.622;2023-12-20T04:09:05;4.00;99.90
40638;DHT22;26336;44.696;10.622;2023-12-20T04:12:09;4.10;99.90
40638;DHT22;26336;44.696;10.622;2023-12-20T04:15:13;4.10;99.90
40638;DHT22;26336;44.696;10.622;2023-12-20T04:18:17;4.10;99.90
40638;DHT22;26336;44.696;10.622;2023-12-20T04:21:21;4.20;99.90
40638;DHT22;26336;44.696;10.622;2023-12-20T04:24:26;4.20;99.90
40638;DHT22;26336;44.696;10.622;2023-12-20T04:27:30;4.20;99.90
40638;DHT22;26336;44.696;10.622;2023-12-20T04:30:34;4.20;99.90
40638;DHT22;26336;44.696;10.622;2023-12-20T04:33:38;4.20;99.90
40638;DHT22;26336;44.696;10.622;2023-12-20T04:36:43;4.30;99.90
40638;DHT22;26336;44.696;10.622;2023-12-20T04:39:47;4.30;99.90
40638;DHT22;26336;44.696;10.622;2023-12-20T04:42:51;4.30;99.90
40638;DHT22;26336;44.696;10.622;2023-12-20T04:45:55;4.40;99.90
40638;DHT22;26336;44.696;10.622;2023-12-20T04:48:59;4.40;99.90
40638;DHT22;26336;44.696;10.622;2023-12-20T04:52:03;4.40;99.90
40638;DHT22;26336;44.696;10.622;2023-12-20T04:55:08;4.40;99.90
40638;DHT22;26336;44.696;10.622;2023-12-20T04:58:12;4.40;99.90
40638;DHT22;26336;44.696;10.622;2023-12-20T05:01:16;4.40;99.90
40638;DHT22;26336;44.696;10.622;2023-12-20T05:04:20;4.40;99.90
40638;DHT22;26336;44.696;10.622;2023-12-20T05:07:24;4.40;99.90
40638;DHT22;26336;44.696;10.622;2023-12-20T05:10:28;4.30;99.90
40638;DHT22;26336;44.696;10.622;2023-12-20T05:13:32;4.40;99.90
40638;DHT22;26336;44.696;10.622;2023-12-20T05:16:35;4.40;99.90
40638;DHT22;26336;44.696;10.622;2023-12-20T05:19:39;4.40;99.90
40638;DHT22;26336;44.696;10.622;2023-12-20T05:22:44;4.40;99.90
40638;DHT22;26336;44.696;10.622;2023-12-20T05:25:48;4.30;99.90
40638;DHT22;26336;44.696;10.622;2023-12-20T05:28:52;4.30;99.90
40638;DHT22;26336;44.696;10.622;2023-12-20T05:31:58;4.30;99.90
40638;DHT22;26336;44.696;10.622;2023-12-20T05:35:02;4.20;99.90
40638;DHT22;26336;44.696;10.622;2023-12-20T05:38:06;4.20;99.90
40638;DHT22;26336;44.696;10.622;2023-12-20T05:41:10;4.20;99.90
40638;DHT22;26336;44.696;10.622;2023-12-20T05:44:14;4.20;99.90
40638;DHT22;26336;44.696;10.622;2023-12-20T05:47:18;4.10;99.90
40638;DHT22;26336;44.696;10.622;2023-12-20T05:50:22;4.00;99.90
40638;DHT22;26336;44.696;10.622;2023-12-20T05:53:26;4.00;99.90
40638;DHT22;26336;44.696;10.622;2023-12-20T05:56:30;4.00;99.90
40638;DHT22;26336;44.696;10.622;2023-12-20T05:59:34;4.00;99.90
40638;DHT22;26336;44.696;10.622;2023-12-20T06:02:38;4.00;99.90
40638;DHT22;26336;44.696;10.622;2023-12-20T06:05:42;4.00;99.90
40638;DHT22;26336;44.696;10.622;2023-12-20T06:08:46;4.00;99.90
40638;DHT22;26336;44.696;10.622;2023-12-20T06:11:50;4.00;99.90
40638;DHT22;26336;44.696;10.622;2023-12-20T06:14:54;4.10;99.90
40638;DHT22;26336;44.696;10.622;2023-12-20T06:17:58;4.20;99.90
40638;DHT22;26336;44.696;10.622;2023-12-20T06:21:03;4.20;99.90
40638;DHT22;26336;44.696;10.622;2023-12-20T06:24:07;4.20;99.90
40638;DHT22;26336;44.696;10.622;2023-12-20T06:27:11;4.30;99.90
40638;DHT22;26336;44.696;10.622;2023-12-20T06:30:15;4.40;99.90
40638;DHT22;26336;44.696;10.622;2023-12-20T06:33:20;4.40;99.90
40638;DHT22;26336;44.696;10.622;2023-12-20T06:36:29;4.50;99.90
40638;DHT22;26336;44.696;10.622;2023-12-20T06:39:32;4.50;99.90
40638;DHT22;26336;44.696;10.622;2023-12-20T06:42:37;4.50;99.90
40638;DHT22;26336;44.696;10.622;2023-12-20T06:45:41;4.50;99.90
40638;DHT22;26336;44.696;10.622;2023-12-20T06:48:45;4.60;99.90
40638;DHT22;26336;44.696;10.622;2023-12-20T06:51:52;4.60;99.90
40638;DHT22;26336;44.696;10.622;2023-12-20T06:54:57;4.60;99.90
40638;DHT22;26336;44.696;10.622;2023-12-20T06:58:02;4.60;99.90
40638;DHT22;26336;44.696;10.622;2023-12-20T07:01:13;4.50;99.90
40638;DHT22;26336;44.696;10.622;2023-12-20T07:04:19;4.50;99.90
40638;DHT22;26336;44.696;10.622;2023-12-20T07:07:25;4.50;99.90
40638;DHT22;26336;44.696;10.622;2023-12-20T07:10:30;4.50;99.90
40638;DHT22;26336;44.696;10.622;2023-12-20T07:13:34;4.60;99.90
40638;DHT22;26336;44.696;10.622;2023-12-20T07:16:39;4.60;99.90
40638;DHT22;26336;44.696;10.622;2023-12-20T07:19:42;4.70;99.90
40638;DHT22;26336;44.696;10.622;2023-12-20T07:22:46;4.70;99.90
40638;DHT22;26336;44.696;10.622;2023-12-20T07:25:51;4.80;99.90
40638;DHT22;26336;44.696;10.622;2023-12-20T07:28:57;4.90;99.90
40638;DHT22;26336;44.696;10.622;2023-12-20T07:32:02;4.80;99.90
40638;DHT22;26336;44.696;10.622;2023-12-20T07:35:06;4.90;99.90
40638;DHT22;26336;44.696;10.622;2023-12-20T07:38:10;4.90;99.90
40638;DHT22;26336;44.696;10.622;2023-12-20T07:41:16;5.00;99.90
40638;DHT22;26336;44.696;10.622;2023-12-20T07:44:19;5.00;99.90
40638;DHT22;26336;44.696;10.622;2023-12-20T07:47:23;5.00;99.90
40638;DHT22;26336;44.696;10.622;2023-12-20T07:50:29;5.00;99.90
40638;DHT22;26336;44.696;10.622;2023-12-20T07:53:33;5.00;99.90
40638;DHT22;26336;44.696;10.622;2023-12-20T07:56:37;5.10;99.90
40638;DHT22;26336;44.696;10.622;2023-12-20T07:59:44;5.10;99.90
40638;DHT22;26336;44.696;10.622;2023-12-20T08:02:48;5.10;99.90
40638;DHT22;26336;44.696;10.622;2023-12-20T08:05:52;5.20;99.90
40638;DHT22;26336;44.696;10.622;2023-12-20T08:08:56;5.20;99.90
40638;DHT22;26336;44.696;10.622;2023-12-20T08:12:01;5.20;99.90
40638;DHT22;26336;44.696;10.622;2023-12-20T08:15:06;5.20;99.90
40638;DHT22;26336;44.696;10.622;2023-12-20T08:18:10;5.20;99.90
40638;DHT22;26336;44.696;10.622;2023-12-20T08:21:14;5.30;99.90
40638;DHT22;26336;44.696;10.622;2023-12-20T08:24:18;5.30;99.90
40638;DHT22;26336;44.696;10.622;2023-12-20T08:27:22;5.30;99.90
40638;DHT22;26336;44.696;10.622;2023-12-20T08:30:26;5.30;99.90
40638;DHT22;26336;44.696;10.622;2023-12-20T08:33:30;5.40;99.90
40638;DHT22;26336;44.696;10.622;2023-12-20T08:36:34;5.40;99.90
40638;DHT22;26336;44.696;10.622;2023-12-20T08:39:38;5.50;99.90
40638;DHT22;26336;44.696;10.622;2023-12-20T08:42:42;5.60;99.90
40638;DHT22;26336;44.696;10.622;2023-12-20T08:45:45;5.60;99.90
40638;DHT22;26336;44.696;10.622;2023-12-20T08:48:49;5.70;99.90
40638;DHT22;26336;44.696;10.622;2023-12-20T08:51:53;5.80;99.90
40638;DHT22;26336;44.696;10.622;2023-12-20T08:54:58;5.80;99.90
40638;DHT22;26336;44.696;10.622;2023-12-20T08:58:02;5.80;99.90
40638;DHT22;26336;44.696;10.622;2023-12-20T09:01:06;5.80;99.90
40638;DHT22;26336;44.696;10.622;2023-12-20T09:04:11;5.90;99.90
40638;DHT22;26336;44.696;10.622;2023-12-20T09:07:25;5.90;99.90
40638;DHT22;26336;44.696;10.622;2023-12-20T09:10:30;6.00;99.90
40638;DHT22;26336;44.696;10.622;2023-12-20T09:13:34;6.00;99.90
40638;DHT22;26336;44.696;10.622;2023-12-20T09:16:38;6.10;99.90
40638;DHT22;26336;44.696;10.622;2023-12-20T09:19:42;6.20;99.90
40638;DHT22;26336;44.696;10.622;2023-12-20T09:22:47;6.20;99.90
40638;DHT22;26336;44.696;10.622;2023-12-20T09:25:51;6.20;99.90
40638;DHT22;26336;44.696;10.622;2023-12-20T09:28:55;6.30;99.90
40638;DHT22;26336;44.696;10.622;2023-12-20T09:31:59;6.30;99.90
40638;DHT22;26336;44.696;10.622;2023-12-20T09:35:04;6.30;99.90
40638;DHT22;26336;44.696;10.622;2023-12-20T09:38:09;6.40;99.90
40638;DHT22;26336;44.696;10.622;2023-12-20T09:41:14;6.40;99.90
40638;DHT22;26336;44.696;10.622;2023-12-20T09:44:18;6.40;99.90
40638;DHT22;26336;44.696;10.622;2023-12-20T09:47:23;6.50;99.90
40638;DHT22;26336;44.696;10.622;2023-12-20T09:50:30;6.40;99.90
40638;DHT22;26336;44.696;10.622;2023-12-20T09:53:37;6.40;99.90
40638;DHT22;26336;44.696;10.622;2023-12-20T09:56:41;6.40;99.90
40638;DHT22;26336;44.696;10.622;2023-12-20T09:59:45;6.40;99.90
40638;DHT22;26336;44.696;10.622;2023-12-20T10:03:00;6.50;99.90
40638;DHT22;26336;44.696;10.622;2023-12-20T10:06:04;6.50;99.90
40638;DHT22;26336;44.696;10.622;2023-12-20T10:09:09;6.60;99.90
40638;DHT22;26336;44.696;10.622;2023-12-20T10:12:13;6.70;99.90
40638;DHT22;26336;44.696;10.622;2023-12-20T10:15:17;6.70;99.90
40638;DHT22;26336;44.696;10.622;2023-12-20T10:18:21;6.80;99.90
40638;DHT22;26336;44.696;10.622;2023-12-20T10:21:26;6.90;99.90
40638;DHT22;26336;44.696;10.622;2023-12-20T10:24:30;6.90;99.90
40638;DHT22;26336;44.696;10.622;2023-12-20T10:27:34;6.90;99.90
40638;DHT22;26336;44.696;10.622;2023-12-20T10:30:39;7.00;99.90
40638;DHT22;26336;44.696;10.622;2023-12-20T10:33:44;7.10;99.90
40638;DHT22;26336;44.696;10.622;2023-12-20T10:36:48;7.30;99.90
40638;DHT22;26336;44.696;10.622;2023-12-20T10:39:54;7.40;99.90
40638;DHT22;26336;44.696;10.622;2023-12-20T10:43:02;7.50;99.90
40638;DHT22;26336;44.696;10.622;2023-12-20T10:46:08;7.60;99.90
40638;DHT22;26336;44.696;10.622;2023-12-20T10:49:12;7.70;99.90
40638;DHT22;26336;44.696;10.622;2023-12-20T10:52:17;7.80;99.90
40638;DHT22;26336;44.696;10.622;2023-12-20T10:55:23;7.90;99.90
40638;DHT22;26336;44.696;10.622;2023-12-20T10:58:29;8.00;99.90
40638;DHT22;26336;44.696;10.622;2023-12-20T11:01:34;8.10;99.90
40638;DHT22;26336;44.696;10.622;2023-12-20T11:07:52;8.20;99.90
40638;DHT22;26336;44.696;10.622;2023-12-20T11:11:14;8.20;99.90
40638;DHT22;26336;44.696;10.622;2023-12-20T11:14:51;8.30;99.90
40638;DHT22;26336;44.696;10.622;2023-12-20T11:17:56;8.30;99.90
40638;DHT22;26336;44.696;10.622;2023-12-20T11:21:06;8.30;99.90
40638;DHT22;26336;44.696;10.622;2023-12-20T11:24:10;8.40;99.90
40638;DHT22;26336;44.696;10.622;2023-12-20T11:27:14;8.30;99.90
40638;DHT22;26336;44.696;10.622;2023-12-20T11:30:20;8.30;99.90
40638;DHT22;26336;44.696;10.622;2023-12-20T11:33:26;8.20;99.90
40638;DHT22;26336;44.696;10.622;2023-12-20T11:36:32;8.20;99.90
40638;DHT22;26336;44.696;10.622;2023-12-20T11:39:36;8.20;99.90
40638;DHT22;26336;44.696;10.622;2023-12-20T11:42:42;8.20;99.90
40638;DHT22;26336;44.696;10.622;2023-12-20T11:45:49;8.20;99.90
40638;DHT22;26336;44.696;10.622;2023-12-20T11:48:57;8.30;99.90
40638;DHT22;26336;44.696;10.622;2023-12-20T11:52:01;8.40;99.90
40638;DHT22;26336;44.696;10.622;2023-12-20T11:55:06;8.30;99.90
40638;DHT22;26336;44.696;10.622;2023-12-20T11:58:10;8.30;99.90
40638;DHT22;26336;44.696;10.622;2023-12-20T12:01:14;8.30;99.90
40638;DHT22;26336;44.696;10.622;2023-12-20T12:04:18;8.30;99.90
40638;DHT22;26336;44.696;10.622;2023-12-20T12:07:22;8.30;99.90
40638;DHT22;26336;44.696;10.622;2023-12-20T12:10:26;8.20;99.90
40638;DHT22;26336;44.696;10.622;2023-12-20T12:13:31;8.20;99.90
40638;DHT22;26336;44.696;10.622;2023-12-20T12:16:35;8.10;99.90
40638;DHT22;26336;44.696;10.622;2023-12-20T12:19:40;8.10;99.90
40638;DHT22;26336;44.696;10.622;2023-12-20T12:22:44;8.20;99.90
40638;DHT22;26336;44.696;10.622;2023-12-20T12:25:49;8.20;99.90
40638;DHT22;26336;44.696;10.622;2023-12-20T12:28:52;8.20;99.90
40638;DHT22;26336;44.696;10.622;2023-12-20T12:31:59;8.20;99.90
40638;DHT22;26336;44.696;10.622;2023-12-20T12:35:04;8.30;99.90
40638;DHT22;26336;44.696;10.622;2023-12-20T12:38:11;8.30;99.90
40638;DHT22;26336;44.696;10.622;2023-12-20T12:41:41;8.40;99.90
40638;DHT22;26336;44.696;10.622;2023-12-20T12:44:45;8.40;99.90
40638;DHT22;26336;44.696;10.622;2023-12-20T12:47:50;8.40;99.90
40638;DHT22;26336;44.696;10.622;2023-12-20T12:51:07;8.40;99.90
40638;DHT22;26336;44.696;10.622;2023-12-20T12:54:45;8.40;99.90
40638;DHT22;26336;44.696;10.622;2023-12-20T12:57:55;8.40;99.90
40638;DHT22;26336;44.696;10.622;2023-12-20T13:01:08;8.50;99.90
40638;DHT22;26336;44.696;10.622;2023-12-20T13:04:18;8.50;99.90
40638;DHT22;26336;44.696;10.622;2023-12-20T13:08:49;8.50;99.90
40638;DHT22;26336;44.696;10.622;2023-12-20T13:12:06;8.50;99.90
40638;DHT22;26336;44.696;10.622;2023-12-20T13:15:13;8.50;99.90
40638;DHT22;26336;44.696;10.622;2023-12-20T13:18:28;8.50;99.90
40638;DHT22;26336;44.696;10.622;2023-12-20T13:21:32;8.50;99.90
40638;DHT22;26336;44.696;10.622;2023-12-20T13:24:36;8.50;99.90
40638;DHT22;26336;44.696;10.622;2023-12-20T13:31:01;8.50;99.90
40638;DHT22;26336;44.696;10.622;2023-12-20T13:34:27;8.40;99.90
40638;DHT22;26336;44.696;10.622;2023-12-20T13:37:36;8.30;99.90
40638;DHT22;26336;44.696;10.622;2023-12-20T13:40:43;8.30;99.90
40638;DHT22;26336;44.696;10.622;2023-12-20T13:43:47;8.40;99.90
40638;DHT22;26336;44.696;10.622;2023-12-20T13:46:51;8.40;99.90
40638;DHT22;26336;44.696;10.622;2023-12-20T13:50:04;8.40;99.90
40638;DHT22;26336;44.696;10.622;2023-12-20T13:53:40;8.40;99.90
40638;DHT22;26336;44.696;10.622;2023-12-20T13:57:09;8.50;99.90
40638;DHT22;26336;44.696;10.622;2023-12-20T14:00:36;8.50;99.90
40638;DHT22;26336;44.696;10.622;2023-12-20T14:03:40;8.60;99.90
40638;DHT22;26336;44.696;10.622;2023-12-20T14:06:51;8.50;99.90
40638;DHT22;26336;44.696;10.622;2023-12-20T14:10:07;8.60;99.90
40638;DHT22;26336;44.696;10.622;2023-12-20T14:13:42;8.60;99.90
40638;DHT22;26336;44.696;10.622;2023-12-20T14:16:53;8.70;99.90
40638;DHT22;26336;44.696;10.622;2023-12-20T14:20:01;8.70;99.90
40638;DHT22;26336;44.696;10.622;2023-12-20T14:23:08;8.60;99.90
40638;DHT22;26336;44.696;10.622;2023-12-20T14:26:15;8.70;99.90
40638;DHT22;26336;44.696;10.622;2023-12-20T14:29:19;8.70;99.90
40638;DHT22;26336;44.696;10.622;2023-12-20T14:32:24;8.70;99.90
40638;DHT22;26336;44.696;10.622;2023-12-20T14:35:30;8.70;99.90
40638;DHT22;26336;44.696;10.622;2023-12-20T14:38:34;8.60;99.90
40638;DHT22;26336;44.696;10.622;2023-12-20T14:41:39;8.60;99.90
40638;DHT22;26336;44.696;10.622;2023-12-20T14:44:46;8.50;99.90
40638;DHT22;26336;44.696;10.622;2023-12-20T14:47:50;8.40;99.90
40638;DHT22;26336;44.696;10.622;2023-12-20T14:50:54;8.30;99.90
40638;DHT22;26336;44.696;10.622;2023-12-20T14:53:58;8.20;99.90
40638;DHT22;26336;44.696;10.622;2023-12-20T14:57:02;8.10;99.90
40638;DHT22;26336;44.696;10.622;2023-12-20T15:00:07;8.00;99.90
40638;DHT22;26336;44.696;10.622;2023-12-20T15:03:11;8.00;99.90
40638;DHT22;26336;44.696;10.622;2023-12-20T15:06:15;8.10;99.90
40638;DHT22;26336;44.696;10.622;2023-12-20T15:09:19;8.00;99.90
40638;DHT22;26336;44.696;10.622;2023-12-20T15:12:23;7.90;99.90
40638;DHT22;26336;44.696;10.622;2023-12-20T15:15:27;7.90;99.90
40638;DHT22;26336;44.696;10.622;2023-12-20T15:18:32;7.90;99.90
40638;DHT22;26336;44.696;10.622;2023-12-20T15:21:36;7.90;99.90
40638;DHT22;26336;44.696;10.622;2023-12-20T15:24:44;8.00;99.90
40638;DHT22;26336;44.696;10.622;2023-12-20T15:27:50;8.00;99.90
40638;DHT22;26336;44.696;10.622;2023-12-20T15:30:57;8.00;99.90
40638;DHT22;26336;44.696;10.622;2023-12-20T15:34:01;7.90;99.90
40638;DHT22;26336;44.696;10.622;2023-12-20T15:37:07;7.90;99.90
40638;DHT22;26336;44.696;10.622;2023-12-20T15:40:11;7.90;99.90
40638;DHT22;26336;44.696;10.622;2023-12-20T15:43:16;7.80;99.90
40638;DHT22;26336;44.696;10.622;2023-12-20T15:46:21;7.70;99.90
40638;DHT22;26336;44.696;10.622;2023-12-20T15:49:25;7.60;99.90
40638;DHT22;26336;44.696;10.622;2023-12-20T15:52:29;7.60;99.90
40638;DHT22;26336;44.696;10.622;2023-12-20T15:55:33;7.40;99.90
40638;DHT22;26336;44.696;10.622;2023-12-20T15:58:37;7.40;99.90
40638;DHT22;26336;44.696;10.622;2023-12-20T16:01:41;7.40;99.90
40638;DHT22;26336;44.696;10.622;2023-12-20T16:04:45;7.30;99.90
40638;DHT22;26336;44.696;10.622;2023-12-20T16:07:49;7.30;99.90
40638;DHT22;26336;44.696;10.622;2023-12-20T16:10:56;7.30;99.90
40638;DHT22;26336;44.696;10.622;2023-12-20T16:14:00;7.30;99.90
40638;DHT22;26336;44.696;10.622;2023-12-20T16:17:04;7.30;99.90
40638;DHT22;26336;44.696;10.622;2023-12-20T16:20:09;7.30;99.90
40638;DHT22;26336;44.696;10.622;2023-12-20T16:23:13;7.20;99.90
40638;DHT22;26336;44.696;10.622;2023-12-20T16:26:17;7.20;99.90
40638;DHT22;26336;44.696;10.622;2023-12-20T16:29:21;7.20;99.90
40638;DHT22;26336;44.696;10.622;2023-12-20T16:32:25;7.20;99.90
40638;DHT22;26336;44.696;10.622;2023-12-20T16:35:30;7.20;99.90
40638;DHT22;26336;44.696;10.622;2023-12-20T16:38:36;7.10;99.90
40638;DHT22;26336;44.696;10.622;2023-12-20T16:41:40;7.00;99.90
40638;DHT22;26336;44.696;10.622;2023-12-20T16:44:44;7.00;99.90
40638;DHT22;26336;44.696;10.622;2023-12-20T16:47:49;7.00;99.90
40638;DHT22;26336;44.696;10.622;2023-12-20T16:50:55;7.00;99.90
40638;DHT22;26336;44.696;10.622;2023-12-20T16:54:00;6.90;99.90
40638;DHT22;26336;44.696;10.622;2023-12-20T16:57:04;6.80;99.90
40638;DHT22;26336;44.696;10.622;2023-12-20T17:00:11;6.80;99.90
40638;DHT22;26336;44.696;10.622;2023-12-20T17:03:16;6.80;99.90
40638;DHT22;26336;44.696;10.622;2023-12-20T17:06:20;6.80;99.90
40638;DHT22;26336;44.696;10.622;2023-12-20T17:09:24;6.80;99.90
40638;DHT22;26336;44.696;10.622;2023-12-20T17:12:29;6.70;99.90
40638;DHT22;26336;44.696;10.622;2023-12-20T17:15:33;6.80;99.90
40638;DHT22;26336;44.696;10.622;2023-12-20T17:18:37;6.70;99.90
40638;DHT22;26336;44.696;10.622;2023-12-20T17:21:44;6.70;99.90
40638;DHT22;26336;44.696;10.622;2023-12-20T17:24:48;6.70;99.90
40638;DHT22;26336;44.696;10.622;2023-12-20T17:27:52;6.70;99.90
40638;DHT22;26336;44.696;10.622;2023-12-20T17:30:56;6.70;99.90
40638;DHT22;26336;44.696;10.622;2023-12-20T17:34:00;6.60;99.90
40638;DHT22;26336;44.696;10.622;2023-12-20T17:37:04;6.50;99.90
40638;DHT22;26336;44.696;10.622;2023-12-20T17:40:09;6.40;99.90
40638;DHT22;26336;44.696;10.622;2023-12-20T17:43:13;6.40;99.90
40638;DHT22;26336;44.696;10.622;2023-12-20T17:46:17;6.40;99.90
40638;DHT22;26336;44.696;10.622;2023-12-20T17:49:21;6.40;99.90
40638;DHT22;26336;44.696;10.622;2023-12-20T17:52:25;6.40;99.90
40638;DHT22;26336;44.696;10.622;2023-12-20T17:55:29;6.40;99.90
40638;DHT22;26336;44.696;10.622;2023-12-20T17:58:33;6.40;99.90
40638;DHT22;26336;44.696;10.622;2023-12-20T18:01:38;6.40;99.90
40638;DHT22;26336;44.696;10.622;2023-12-20T18:04:42;6.40;99.90
40638;DHT22;26336;44.696;10.622;2023-12-20T18:07:46;6.30;99.90
40638;DHT22;26336;44.696;10.622;2023-12-20T18:10:52;6.30;99.90
40638;DHT22;26336;44.696;10.622;2023-12-20T18:14:01;6.30;99.90
40638;DHT22;26336;44.696;10.622;2023-12-20T18:17:05;6.30;99.90
40638;DHT22;26336;44.696;10.622;2023-12-20T18:20:10;6.30;99.90
40638;DHT22;26336;44.696;10.622;2023-12-20T18:23:14;6.30;99.90
40638;DHT22;26336;44.696;10.622;2023-12-20T18:26:18;6.20;99.90
40638;DHT22;26336;44.696;10.622;2023-12-20T18:29:22;6.20;99.90
40638;DHT22;26336;44.696;10.622;2023-12-20T18:32:26;6.20;99.90
40638;DHT22;26336;44.696;10.622;2023-12-20T18:35:30;6.20;99.90
40638;DHT22;26336;44.696;10.622;2023-12-20T18:38:36;6.20;99.90
40638;DHT22;26336;44.696;10.622;2023-12-20T18:41:41;6.20;99.90
40638;DHT22;26336;44.696;10.622;2023-12-20T18:44:51;6.20;99.90
40638;DHT22;26336;44.696;10.622;2023-12-20T18:47:55;6.20;99.90
40638;DHT22;26336;44.696;10.622;2023-12-20T18:51:00;6.20;99.90
40638;DHT22;26336;44.696;10.622;2023-12-20T18:54:04;6.10;99.90
40638;DHT22;26336;44.696;10.622;2023-12-20T18:57:13;6.10;99.90
40638;DHT22;26336;44.696;10.622;2023-12-20T19:00:18;6.10;99.90
40638;DHT22;26336;44.696;10.622;2023-12-20T19:03:22;6.10;99.90
40638;DHT22;26336;44.696;10.622;2023-12-20T19:06:29;6.10;99.90
40638;DHT22;26336;44.696;10.622;2023-12-20T19:10:20;6.10;99.90
40638;DHT22;26336;44.696;10.622;2023-12-20T19:13:26;6.00;99.90
40638;DHT22;26336;44.696;10.622;2023-12-20T19:16:38;6.00;99.90
40638;DHT22;26336;44.696;10.622;2023-12-20T19:19:42;5.90;99.90
40638;DHT22;26336;44.696;10.622;2023-12-20T19:22:46;5.90;99.90
40638;DHT22;26336;44.696;10.622;2023-12-20T19:25:51;5.90;99.90
40638;DHT22;26336;44.696;10.622;2023-12-20T19:28:55;5.90;99.90
40638;DHT22;26336;44.696;10.622;2023-12-20T19:31:59;6.00;99.90
40638;DHT22;26336;44.696;10.622;2023-12-20T19:35:03;5.90;99.90
40638;DHT22;26336;44.696;10.622;2023-12-20T19:38:07;5.90;99.90